Aviation Digital Data Service (ADDS)

Output produced by METARs form (2157 UTC 23 October 2014)
found at http://aviationweather.gov/adds/metars/
 
KIAH 232036Z 2321/2424 06009KT P6SM SCT140 
     FM240100 VRB04KT P6SM SKC 
     FM241400 04006KT P6SM SKC